Impacts TAF Board
For situational awareness. Not to be used for flight planning purposes.
IDs:

KGUC - Gunnison Arpt, CO, US

Issued at 0531 UTC 27 Feb 2020
Updated at 0651 UTC 27 Feb 2020
Potential Impact None Slight Moderate High
Time0556Z 27/07Z 27/08Z 27/09Z 27/10Z 27/11Z 27/12Z 27/13Z 27/14Z 27/15Z 27/16Z 27/17Z 27/18Z 27/19Z>>
Type OBS PRVL PRVL PRVL PRVL PRVL PRVL PRVL PRVL PRVL PRVL PRVL PRVL PRVL
VIS 10 >6 >6 >6 >6 >6 >6 >6 >6 >6 >6 >6 >6 >6
CIG 70 60 60 60 60 60 60 60 -- -- -- -- -- --
Cover OVC BKN BKN BKN BKN BKN BKN BKN FEW FEW FEW FEW SKC SKC
FltCat VFR VFR VFR VFR VFR VFR VFR VFR VFR VFR VFR VFR VFR VFR
WX -- -- -- -- -- -- -- -- -- -- -- -- -- --
WDir VRB VRB VRB VRB VRB VRB VRB VRB VRB VRB VRB VRB 260 260
WSpd 0 3 3 3 3 3 3 3 3 3 3 3 6 6
WGst -- -- -- -- -- -- -- -- -- -- -- -- 15 15
Raw TAF
KGUC 270531Z 2706/2806 VRB03KT P6SM BKN060
  FM271400 VRB03KT P6SM FEW090 FEW250
  FM271800 26006G15KT P6SM SKC
  FM272200 29009G16KT P6SM FEW070 FEW250
  FM280000 29009G16KT P6SM BKN250
  FM280100 31004KT P6SM BKN250


Raw METAR
KGUC 270556Z AUTO 00000KT 10SM OVC070 M12/M16 A3034 RMK AO2 SLP379 T11221156 11056 21122 410561244 51006 FZRANO
KGUC 270456Z AUTO 06006KT 10SM BKN060 M12/M16 A3034 RMK AO2 SLP387 T11171161 FZRANO
KGUC 270356Z AUTO 34004KT 10SM FEW065 M11/M15 A3033 RMK AO2 SLP395 T11111150 FZRANO

METAR Board
Radar Display
Forecast Discussion
For situational awareness. Not to be used for flight planning purposes.